sensor_id;sensor_type;location;lat;lon;timestamp;pressure;altitude;pressure_sealevel;temperature;humidity
75013;BME280;63567;49.956;20.130;2024-02-21T00:00:35;97649.94;;;5.95;94.79
75013;BME280;63567;49.956;20.130;2024-02-21T00:03:03;97651.03;;;5.93;94.71
75013;BME280;63567;49.956;20.130;2024-02-21T00:05:29;97650.22;;;5.92;94.65
75013;BME280;63567;49.956;20.130;2024-02-21T00:07:54;97643.47;;;5.90;94.93
75013;BME280;63567;49.956;20.130;2024-02-21T00:10:20;97646.91;;;5.90;94.84
75013;BME280;63567;49.956;20.130;2024-02-21T00:12:45;97646.09;;;5.90;94.74
75013;BME280;63567;49.956;20.130;2024-02-21T00:15:11;97644.56;;;5.87;94.78
75013;BME280;63567;49.956;20.130;2024-02-21T00:17:37;97645.56;;;5.86;94.58
75013;BME280;63567;49.956;20.130;2024-02-21T00:20:02;97640.59;;;5.83;94.64
75013;BME280;63567;49.956;20.130;2024-02-21T00:22:27;97643.88;;;5.85;94.24
75013;BME280;63567;49.956;20.130;2024-02-21T00:24:56;97635.53;;;5.82;94.15
75013;BME280;63567;49.956;20.130;2024-02-21T00:27:23;97634.97;;;5.78;93.78
75013;BME280;63567;49.956;20.130;2024-02-21T00:29:48;97640.88;;;5.80;93.62
75013;BME280;63567;49.956;20.130;2024-02-21T00:32:13;97640.19;;;5.78;93.43
75013;BME280;63567;49.956;20.130;2024-02-21T00:34:39;97635.97;;;5.77;93.24
75013;BME280;63567;49.956;20.130;2024-02-21T00:37:04;97631.81;;;5.74;93.13
75013;BME280;63567;49.956;20.130;2024-02-21T00:39:29;97637.88;;;5.75;93.27
75013;BME280;63567;49.956;20.130;2024-02-21T00:41:55;97637.88;;;5.75;93.24
75013;BME280;63567;49.956;20.130;2024-02-21T00:44:20;97636.53;;;5.71;92.89
75013;BME280;63567;49.956;20.130;2024-02-21T00:46:45;97638.31;;;5.70;92.94
75013;BME280;63567;49.956;20.130;2024-02-21T00:49:12;97642.03;;;5.68;93.05
75013;BME280;63567;49.956;20.130;2024-02-21T00:51:37;97638.03;;;5.64;93.00
75013;BME280;63567;49.956;20.130;2024-02-21T00:54:02;97644.94;;;5.65;93.11
75013;BME280;63567;49.956;20.130;2024-02-21T00:56:28;97643.44;;;5.62;93.08
75013;BME280;63567;49.956;20.130;2024-02-21T00:58:54;97634.34;;;5.56;93.58
75013;BME280;63567;49.956;20.130;2024-02-21T01:01:24;97636.16;;;5.56;93.76
75013;BME280;63567;49.956;20.130;2024-02-21T01:03:50;97632.03;;;5.53;94.14
75013;BME280;63567;49.956;20.130;2024-02-21T01:06:18;97626.81;;;5.53;94.08
75013;BME280;63567;49.956;20.130;2024-02-21T01:08:43;97619.78;;;5.54;94.46
75013;BME280;63567;49.956;20.130;2024-02-21T01:11:08;97619.91;;;5.52;94.56
75013;BME280;63567;49.956;20.130;2024-02-21T01:13:34;97614.00;;;5.50;94.36
75013;BME280;63567;49.956;20.130;2024-02-21T01:15:59;97610.59;;;5.50;94.34
75013;BME280;63567;49.956;20.130;2024-02-21T01:18:24;97602.75;;;5.50;94.97
75013;BME280;63567;49.956;20.130;2024-02-21T01:20:49;97606.16;;;5.50;95.08
75013;BME280;63567;49.956;20.130;2024-02-21T01:23:15;97607.97;;;5.50;95.11
75013;BME280;63567;49.956;20.130;2024-02-21T01:25:40;97615.00;;;5.49;95.14
75013;BME280;63567;49.956;20.130;2024-02-21T01:28:05;97603.72;;;5.49;95.33
75013;BME280;63567;49.956;20.130;2024-02-21T01:30:30;97600.25;;;5.48;95.18
75013;BME280;63567;49.956;20.130;2024-02-21T01:32:56;97602.06;;;5.48;95.19
75013;BME280;63567;49.956;20.130;2024-02-21T01:35:21;97608.09;;;5.48;95.51
75013;BME280;63567;49.956;20.130;2024-02-21T01:37:46;97601.25;;;5.47;95.21
75013;BME280;63567;49.956;20.130;2024-02-21T01:40:11;97596.97;;;5.46;95.06
75013;BME280;63567;49.956;20.130;2024-02-21T01:42:40;97593.53;;;5.46;95.49
75013;BME280;63567;49.956;20.130;2024-02-21T01:45:08;97594.66;;;5.43;95.50
75013;BME280;63567;49.956;20.130;2024-02-21T01:47:34;97598.88;;;5.44;95.53
75013;BME280;63567;49.956;20.130;2024-02-21T01:50:01;97600.69;;;5.44;95.68
75013;BME280;63567;49.956;20.130;2024-02-21T01:52:29;97599.88;;;5.43;95.68
75013;BME280;63567;49.956;20.130;2024-02-21T01:54:55;97594.66;;;5.43;95.72
75013;BME280;63567;49.956;20.130;2024-02-21T01:57:20;97593.00;;;5.42;95.72
75013;BME280;63567;49.956;20.130;2024-02-21T01:59:45;97584.50;;;5.40;95.61
75013;BME280;63567;49.956;20.130;2024-02-21T02:02:11;97587.09;;;5.40;95.56
75013;BME280;63567;49.956;20.130;2024-02-21T02:04:38;97584.50;;;5.40;95.55
75013;BME280;63567;49.956;20.130;2024-02-21T02:07:06;97589.03;;;5.38;95.34
75013;BME280;63567;49.956;20.130;2024-02-21T02:09:32;97583.94;;;5.37;95.42
75013;BME280;63567;49.956;20.130;2024-02-21T02:11:57;97579.84;;;5.34;95.44
75013;BME280;63567;49.956;20.130;2024-02-21T02:14:24;97581.75;;;5.32;95.62
75013;BME280;63567;49.956;20.130;2024-02-21T02:16:50;97579.16;;;5.32;95.45
75013;BME280;63567;49.956;20.130;2024-02-21T02:19:15;97574.06;;;5.30;95.86
75013;BME280;63567;49.956;20.130;2024-02-21T02:21:44;97582.88;;;5.29;95.49
75013;BME280;63567;49.956;20.130;2024-02-21T02:24:11;97576.13;;;5.27;95.39
75013;BME280;63567;49.956;20.130;2024-02-21T02:26:38;97575.47;;;5.25;95.34
75013;BME280;63567;49.956;20.130;2024-02-21T02:29:04;97565.16;;;5.23;95.50
75013;BME280;63567;49.956;20.130;2024-02-21T02:31:29;97564.47;;;5.21;95.30
75013;BME280;63567;49.956;20.130;2024-02-21T02:33:54;97566.38;;;5.19;95.40
75013;BME280;63567;49.956;20.130;2024-02-21T02:36:19;97556.38;;;5.14;95.32
75013;BME280;63567;49.956;20.130;2024-02-21T02:38:45;97573.84;;;5.14;95.11
75013;BME280;63567;49.956;20.130;2024-02-21T02:41:10;97566.13;;;5.12;95.27
75013;BME280;63567;49.956;20.130;2024-02-21T02:43:35;97561.16;;;5.09;95.20
75013;BME280;63567;49.956;20.130;2024-02-21T02:46:02;97558.72;;;5.08;94.89
75013;BME280;63567;49.956;20.130;2024-02-21T02:48:27;97560.78;;;5.04;95.15
75013;BME280;63567;49.956;20.130;2024-02-21T02:50:52;97558.47;;;5.01;95.25
75013;BME280;63567;49.956;20.130;2024-02-21T02:53:19;97563.81;;;5.00;95.44
75013;BME280;63567;49.956;20.130;2024-02-21T02:55:44;97549.94;;;4.99;95.75
75013;BME280;63567;49.956;20.130;2024-02-21T02:58:09;97556.13;;;4.98;95.61
75013;BME280;63567;49.956;20.130;2024-02-21T03:00:34;97556.78;;;5.00;95.78
75013;BME280;63567;49.956;20.130;2024-02-21T03:03:01;97553.38;;;5.00;95.96
75013;BME280;63567;49.956;20.130;2024-02-21T03:05:29;97553.50;;;4.98;95.93
75013;BME280;63567;49.956;20.130;2024-02-21T03:07:54;97547.59;;;4.96;96.15
75013;BME280;63567;49.956;20.130;2024-02-21T03:10:20;97550.22;;;4.96;96.01
75013;BME280;63567;49.956;20.130;2024-02-21T03:12:45;97544.16;;;4.96;96.30
75013;BME280;63567;49.956;20.130;2024-02-21T03:15:11;97538.13;;;4.95;96.54
75013;BME280;63567;49.956;20.130;2024-02-21T03:17:37;97537.16;;;4.96;96.58
75013;BME280;63567;49.956;20.130;2024-02-21T03:20:03;97538.13;;;4.95;96.39
75013;BME280;63567;49.956;20.130;2024-02-21T03:22:34;97542.66;;;4.93;96.44
75013;BME280;63567;49.956;20.130;2024-02-21T03:24:59;97540.75;;;4.95;96.50
75013;BME280;63567;49.956;20.130;2024-02-21T03:27:25;97529.63;;;4.93;96.53
75013;BME280;63567;49.956;20.130;2024-02-21T03:29:50;97542.66;;;4.93;96.57
75013;BME280;63567;49.956;20.130;2024-02-21T03:32:15;97538.41;;;4.92;96.44
75013;BME280;63567;49.956;20.130;2024-02-21T03:34:40;97545.41;;;4.91;96.60
75013;BME280;63567;49.956;20.130;2024-02-21T03:37:06;97533.34;;;4.90;96.33
75013;BME280;63567;49.956;20.130;2024-02-21T03:39:31;97538.41;;;4.92;96.65
75013;BME280;63567;49.956;20.130;2024-02-21T03:41:57;97539.38;;;4.91;96.30
75013;BME280;63567;49.956;20.130;2024-02-21T03:44:25;97542.94;;;4.90;96.41
75013;BME280;63567;49.956;20.130;2024-02-21T03:46:50;97541.28;;;4.89;96.14
75013;BME280;63567;49.956;20.130;2024-02-21T03:49:16;97537.88;;;4.88;96.16
75013;BME280;63567;49.956;20.130;2024-02-21T03:51:41;97547.34;;;4.89;96.16
75013;BME280;63567;49.956;20.130;2024-02-21T03:54:06;97546.66;;;4.87;96.20
75013;BME280;63567;49.956;20.130;2024-02-21T03:56:31;97543.34;;;4.85;95.89
75013;BME280;63567;49.956;20.130;2024-02-21T03:58:57;97539.09;;;4.84;96.12
75013;BME280;63567;49.956;20.130;2024-02-21T04:01:23;97541.84;;;4.83;96.34
75013;BME280;63567;49.956;20.130;2024-02-21T04:03:48;97540.91;;;4.84;96.25
75013;BME280;63567;49.956;20.130;2024-02-21T04:06:13;97540.91;;;4.84;96.35
75013;BME280;63567;49.956;20.130;2024-02-21T04:08:39;97540.75;;;4.85;96.33
75013;BME280;63567;49.956;20.130;2024-02-21T04:11:04;97537.31;;;4.85;96.61
75013;BME280;63567;49.956;20.130;2024-02-21T04:13:29;97532.78;;;4.87;96.70
75013;BME280;63567;49.956;20.130;2024-02-21T04:15:54;97531.81;;;4.88;96.94
75013;BME280;63567;49.956;20.130;2024-02-21T04:18:19;97523.84;;;4.89;96.96
75013;BME280;63567;49.956;20.130;2024-02-21T04:20:45;97528.25;;;4.89;97.24
75013;BME280;63567;49.956;20.130;2024-02-21T04:23:10;97523.97;;;4.88;97.20
75013;BME280;63567;49.956;20.130;2024-02-21T04:25:36;97515.47;;;4.86;97.34
75013;BME280;63567;49.956;20.130;2024-02-21T04:28:01;97519.31;;;4.91;97.47
75013;BME280;63567;49.956;20.130;2024-02-21T04:30:26;97516.56;;;4.93;97.44
75013;BME280;63567;49.956;20.130;2024-02-21T04:32:51;97518.06;;;4.96;97.33
75013;BME280;63567;49.956;20.130;2024-02-21T04:35:17;97514.50;;;4.97;97.37
75013;BME280;63567;49.956;20.130;2024-02-21T04:37:42;97516.13;;;4.98;97.54
75013;BME280;63567;49.956;20.130;2024-02-21T04:40:08;97517.63;;;5.00;97.35
75013;BME280;63567;49.956;20.130;2024-02-21T04:42:34;97505.56;;;4.99;97.33
75013;BME280;63567;49.956;20.130;2024-02-21T04:44:59;97495.94;;;5.00;96.89
75013;BME280;63567;49.956;20.130;2024-02-21T04:47:24;97501.03;;;5.01;97.48
75013;BME280;63567;49.956;20.130;2024-02-21T04:49:50;97509.66;;;5.02;97.23
75013;BME280;63567;49.956;20.130;2024-02-21T04:52:15;97508.84;;;5.01;97.01
75013;BME280;63567;49.956;20.130;2024-02-21T04:54:40;97501.97;;;5.00;96.99
75013;BME280;63567;49.956;20.130;2024-02-21T04:57:06;97493.31;;;5.00;97.04
75013;BME280;63567;49.956;20.130;2024-02-21T04:59:31;97486.44;;;4.99;97.32
75013;BME280;63567;49.956;20.130;2024-02-21T05:01:56;97492.66;;;4.98;96.63
75013;BME280;63567;49.956;20.130;2024-02-21T05:04:21;97484.00;;;4.97;96.92
75013;BME280;63567;49.956;20.130;2024-02-21T05:06:47;97477.09;;;4.96;97.04
75013;BME280;63567;49.956;20.130;2024-02-21T05:09:12;97481.81;;;4.92;96.65
75013;BME280;63567;49.956;20.130;2024-02-21T05:11:37;97473.81;;;4.94;96.68
75013;BME280;63567;49.956;20.130;2024-02-21T05:14:03;97479.88;;;4.94;96.74
75013;BME280;63567;49.956;20.130;2024-02-21T05:16:29;97479.03;;;4.94;96.35
75013;BME280;63567;49.956;20.130;2024-02-21T05:18:54;97488.66;;;4.93;96.44
75013;BME280;63567;49.956;20.130;2024-02-21T05:21:19;97492.38;;;4.91;96.97
75013;BME280;63567;49.956;20.130;2024-02-21T05:23:44;97507.91;;;4.92;96.69
75013;BME280;63567;49.956;20.130;2024-02-21T05:26:10;97505.44;;;4.91;96.42
75013;BME280;63567;49.956;20.130;2024-02-21T05:28:35;97520.81;;;4.94;96.41
75013;BME280;63567;49.956;20.130;2024-02-21T05:31:00;97514.91;;;4.92;96.76
75013;BME280;63567;49.956;20.130;2024-02-21T05:33:26;97512.84;;;4.96;96.58
75013;BME280;63567;49.956;20.130;2024-02-21T05:35:51;97515.59;;;4.94;96.48
75013;BME280;63567;49.956;20.130;2024-02-21T05:38:17;97512.03;;;4.95;96.32
75013;BME280;63567;49.956;20.130;2024-02-21T05:40:44;97519.19;;;4.93;96.35
75013;BME280;63567;49.956;20.130;2024-02-21T05:43:09;97513.13;;;4.92;96.54
75013;BME280;63567;49.956;20.130;2024-02-21T05:45:35;97507.06;;;4.92;96.32
75013;BME280;63567;49.956;20.130;2024-02-21T05:48:00;97507.91;;;4.92;96.62
75013;BME280;63567;49.956;20.130;2024-02-21T05:50:26;97513.66;;;4.96;96.71
75013;BME280;63567;49.956;20.130;2024-02-21T05:52:55;97505.00;;;4.96;96.44
75013;BME280;63567;49.956;20.130;2024-02-21T05:55:20;97502.41;;;4.96;96.61
75013;BME280;63567;49.956;20.130;2024-02-21T05:57:46;97494.44;;;4.97;96.25
75013;BME280;63567;49.956;20.130;2024-02-21T06:00:11;97494.28;;;4.99;96.20
75013;BME280;63567;49.956;20.130;2024-02-21T06:02:37;97502.94;;;4.99;96.55
75013;BME280;63567;49.956;20.130;2024-02-21T06:05:02;97496.88;;;4.99;96.41
75013;BME280;63567;49.956;20.130;2024-02-21T06:07:27;97506.25;;;5.01;96.64
75013;BME280;63567;49.956;20.130;2024-02-21T06:09:53;97505.25;;;5.02;96.48
75013;BME280;63567;49.956;20.130;2024-02-21T06:12:18;97497.56;;;5.01;96.31
75013;BME280;63567;49.956;20.130;2024-02-21T06:14:43;97501.72;;;5.03;96.36
75013;BME280;63567;49.956;20.130;2024-02-21T06:17:09;97504.31;;;5.03;96.39
75013;BME280;63567;49.956;20.130;2024-02-21T06:19:34;97505.94;;;5.04;96.30
75013;BME280;63567;49.956;20.130;2024-02-21T06:22:00;97505.81;;;5.06;96.38
75013;BME280;63567;49.956;20.130;2024-02-21T06:24:25;97499.09;;;5.03;96.35
75013;BME280;63567;49.956;20.130;2024-02-21T06:26:50;97508.25;;;5.07;96.24
75013;BME280;63567;49.956;20.130;2024-02-21T06:29:16;97504.72;;;5.08;96.20
75013;BME280;63567;49.956;20.130;2024-02-21T06:31:41;97503.03;;;5.07;96.23
75013;BME280;63567;49.956;20.130;2024-02-21T06:34:06;97501.97;;;5.10;96.38
75013;BME280;63567;49.956;20.130;2024-02-21T06:36:32;97504.41;;;5.11;96.44
75013;BME280;63567;49.956;20.130;2024-02-21T06:38:58;97495.63;;;5.12;96.00
75013;BME280;63567;49.956;20.130;2024-02-21T06:41:24;97492.03;;;5.13;96.65
75013;BME280;63567;49.956;20.130;2024-02-21T06:43:49;97497.13;;;5.15;96.15
75013;BME280;63567;49.956;20.130;2024-02-21T06:46:27;97500.56;;;5.15;96.19
75013;BME280;63567;49.956;20.130;2024-02-21T06:48:53;97501.22;;;5.18;96.13
75013;BME280;63567;49.956;20.130;2024-02-21T06:51:19;97502.91;;;5.19;96.12
75013;BME280;63567;49.956;20.130;2024-02-21T06:53:44;97499.16;;;5.21;96.14
75013;BME280;63567;49.956;20.130;2024-02-21T06:56:10;97493.66;;;5.24;96.19
75013;BME280;63567;49.956;20.130;2024-02-21T06:58:36;97497.94;;;5.25;96.31
75013;BME280;63567;49.956;20.130;2024-02-21T07:01:01;97491.88;;;5.25;96.15
75013;BME280;63567;49.956;20.130;2024-02-21T07:03:27;97502.72;;;5.30;96.07
75013;BME280;63567;49.956;20.130;2024-02-21T07:05:52;97496.50;;;5.31;96.21
75013;BME280;63567;49.956;20.130;2024-02-21T07:08:17;97497.06;;;5.34;96.23
75013;BME280;63567;49.956;20.130;2024-02-21T07:10:42;97496.91;;;5.36;96.21
75013;BME280;63567;49.956;20.130;2024-02-21T07:13:08;97493.47;;;5.35;96.24
75013;BME280;63567;49.956;20.130;2024-02-21T07:15:33;97503.34;;;5.42;96.36
75013;BME280;63567;49.956;20.130;2024-02-21T07:17:58;97500.47;;;5.45;96.45
75013;BME280;63567;49.956;20.130;2024-02-21T07:20:24;97500.03;;;5.49;96.43
75013;BME280;63567;49.956;20.130;2024-02-21T07:22:49;97485.53;;;5.55;97.01
75013;BME280;63567;49.956;20.130;2024-02-21T07:25:15;97494.59;;;5.61;96.44
75013;BME280;63567;49.956;20.130;2024-02-21T07:27:40;97487.00;;;5.67;97.05
75013;BME280;63567;49.956;20.130;2024-02-21T07:30:07;97476.91;;;5.72;97.00
75013;BME280;63567;49.956;20.130;2024-02-21T07:32:32;97478.28;;;5.76;97.33
75013;BME280;63567;49.956;20.130;2024-02-21T07:34:57;97488.16;;;5.83;96.93
75013;BME280;63567;49.956;20.130;2024-02-21T07:37:23;97489.22;;;5.90;96.81
75013;BME280;63567;49.956;20.130;2024-02-21T07:39:48;97476.53;;;5.95;96.87
75013;BME280;63567;49.956;20.130;2024-02-21T07:42:13;97479.38;;;6.02;96.87
75013;BME280;63567;49.956;20.130;2024-02-21T07:44:38;97480.59;;;6.07;96.62
75013;BME280;63567;49.956;20.130;2024-02-21T07:47:04;97466.91;;;6.13;96.76
75013;BME280;63567;49.956;20.130;2024-02-21T07:49:29;97474.84;;;6.22;96.54
75013;BME280;63567;49.956;20.130;2024-02-21T07:51:54;97477.84;;;6.27;96.37
75013;BME280;63567;49.956;20.130;2024-02-21T07:54:19;97465.25;;;6.30;96.16
75013;BME280;63567;49.956;20.130;2024-02-21T07:56:44;97469.22;;;6.34;95.32
75013;BME280;63567;49.956;20.130;2024-02-21T07:59:10;97476.75;;;6.37;95.42
75013;BME280;63567;49.956;20.130;2024-02-21T08:01:35;97480.06;;;6.40;94.42
75013;BME280;63567;49.956;20.130;2024-02-21T08:04:00;97474.53;;;6.43;94.33
75013;BME280;63567;49.956;20.130;2024-02-21T08:06:26;97464.75;;;6.45;93.84
75013;BME280;63567;49.956;20.130;2024-02-21T08:08:51;97465.09;;;6.50;93.80
75013;BME280;63567;49.956;20.130;2024-02-21T08:11:16;97467.09;;;6.56;93.43
75013;BME280;63567;49.956;20.130;2024-02-21T08:13:41;97462.22;;;6.61;93.61
75013;BME280;63567;49.956;20.130;2024-02-21T08:16:07;97464.25;;;6.67;93.27
75013;BME280;63567;49.956;20.130;2024-02-21T08:18:32;97461.03;;;6.73;93.10
75013;BME280;63567;49.956;20.130;2024-02-21T08:21:01;97458.09;;;6.76;93.07
75013;BME280;63567;49.956;20.130;2024-02-21T08:23:26;97459.81;;;6.86;92.90
75013;BME280;63567;49.956;20.130;2024-02-21T08:25:51;97460.16;;;6.91;92.72
75013;BME280;63567;49.956;20.130;2024-02-21T08:28:17;97452.19;;;7.01;93.12
75013;BME280;63567;49.956;20.130;2024-02-21T08:30:42;97456.66;;;7.08;92.77
75013;BME280;63567;49.956;20.130;2024-02-21T08:33:12;97449.78;;;7.15;92.94
75013;BME280;63567;49.956;20.130;2024-02-21T08:35:38;97461.13;;;7.24;92.63
75013;BME280;63567;49.956;20.130;2024-02-21T08:38:03;97451.50;;;7.33;92.33
75013;BME280;63567;49.956;20.130;2024-02-21T08:40:28;97451.09;;;7.46;92.09
75013;BME280;63567;49.956;20.130;2024-02-21T08:42:53;97446.38;;;7.57;92.36
75013;BME280;63567;49.956;20.130;2024-02-21T08:45:19;97448.84;;;7.67;91.62
75013;BME280;63567;49.956;20.130;2024-02-21T08:47:44;97444.78;;;7.73;91.34
75013;BME280;63567;49.956;20.130;2024-02-21T08:50:10;97442.84;;;7.83;90.77
75013;BME280;63567;49.956;20.130;2024-02-21T08:52:36;97442.69;;;7.93;90.09
75013;BME280;63567;49.956;20.130;2024-02-21T08:55:01;97434.03;;;8.00;89.58
75013;BME280;63567;49.956;20.130;2024-02-21T08:57:27;97439.44;;;8.07;89.52
75013;BME280;63567;49.956;20.130;2024-02-21T08:59:52;97438.81;;;8.13;88.63
75013;BME280;63567;49.956;20.130;2024-02-21T09:02:17;97438.63;;;8.23;88.35
75013;BME280;63567;49.956;20.130;2024-02-21T09:04:43;97442.91;;;8.32;88.85
75013;BME280;63567;49.956;20.130;2024-02-21T09:07:11;97434.72;;;8.43;88.25
75013;BME280;63567;49.956;20.130;2024-02-21T09:09:36;97438.00;;;8.54;87.68
75013;BME280;63567;49.956;20.130;2024-02-21T09:12:06;97429.78;;;8.65;87.89
75013;BME280;63567;49.956;20.130;2024-02-21T09:14:32;97431.75;;;8.79;87.72
75013;BME280;63567;49.956;20.130;2024-02-21T09:16:58;97436.13;;;8.95;87.97
75013;BME280;63567;49.956;20.130;2024-02-21T09:19:23;97435.63;;;9.08;86.92
75013;BME280;63567;49.956;20.130;2024-02-21T09:21:48;97434.63;;;9.17;86.69
75013;BME280;63567;49.956;20.130;2024-02-21T09:24:14;97435.22;;;9.28;86.12
75013;BME280;63567;49.956;20.130;2024-02-21T09:26:39;97425.34;;;9.38;84.91
75013;BME280;63567;49.956;20.130;2024-02-21T09:29:04;97428.09;;;9.44;84.52
75013;BME280;63567;49.956;20.130;2024-02-21T09:31:30;97427.75;;;9.48;83.56
75013;BME280;63567;49.956;20.130;2024-02-21T09:33:55;97430.88;;;9.51;82.65
75013;BME280;63567;49.956;20.130;2024-02-21T09:36:20;97434.44;;;9.58;81.92
75013;BME280;63567;49.956;20.130;2024-02-21T09:38:46;97431.31;;;9.63;81.18
75013;BME280;63567;49.956;20.130;2024-02-21T09:41:16;97427.31;;;9.67;80.39
75013;BME280;63567;49.956;20.130;2024-02-21T09:43:43;97425.00;;;9.72;79.87
75013;BME280;63567;49.956;20.130;2024-02-21T09:46:16;97437.00;;;9.75;79.41
75013;BME280;63567;49.956;20.130;2024-02-21T09:48:58;97434.00;;;9.78;79.11
75013;BME280;63567;49.956;20.130;2024-02-21T09:51:24;97435.50;;;9.80;78.75
75013;BME280;63567;49.956;20.130;2024-02-21T09:53:52;97434.13;;;9.84;78.53
75013;BME280;63567;49.956;20.130;2024-02-21T09:56:18;97432.63;;;9.90;78.43
75013;BME280;63567;49.956;20.130;2024-02-21T09:58:43;97425.22;;;9.94;78.25
75013;BME280;63567;49.956;20.130;2024-02-21T10:01:09;97414.00;;;10.00;77.87
75013;BME280;63567;49.956;20.130;2024-02-21T10:03:34;97424.00;;;10.04;77.27
75013;BME280;63567;49.956;20.130;2024-02-21T10:05:59;97428.56;;;10.11;76.67
75013;BME280;63567;49.956;20.130;2024-02-21T10:08:26;97425.84;;;10.19;76.67
75013;BME280;63567;49.956;20.130;2024-02-21T10:10:51;97417.22;;;10.33;77.01
75013;BME280;63567;49.956;20.130;2024-02-21T10:13:25;97417.09;;;10.50;77.14
75013;BME280;63567;49.956;20.130;2024-02-21T10:16:07;97416.56;;;10.69;76.99
75013;BME280;63567;49.956;20.130;2024-02-21T10:18:36;97414.34;;;10.81;76.20
75013;BME280;63567;49.956;20.130;2024-02-21T10:21:03;97413.06;;;10.92;75.53
75013;BME280;63567;49.956;20.130;2024-02-21T10:23:29;97409.34;;;11.01;74.95
75013;BME280;63567;49.956;20.130;2024-02-21T10:25:54;97402.34;;;11.08;74.36
75013;BME280;63567;49.956;20.130;2024-02-21T10:28:19;97396.00;;;11.17;73.86
75013;BME280;63567;49.956;20.130;2024-02-21T10:30:52;97398.50;;;11.25;73.55
75013;BME280;63567;49.956;20.130;2024-02-21T10:33:17;97399.44;;;11.33;73.49
75013;BME280;63567;49.956;20.130;2024-02-21T10:35:46;97389.78;;;11.40;72.94
75013;BME280;63567;49.956;20.130;2024-02-21T10:38:12;97388.03;;;11.47;72.95
75013;BME280;63567;49.956;20.130;2024-02-21T10:40:38;97394.84;;;11.56;73.05
75013;BME280;63567;49.956;20.130;2024-02-21T10:43:03;97383.53;;;11.62;72.98
75013;BME280;63567;49.956;20.130;2024-02-21T10:45:32;97378.13;;;11.70;72.12
75013;BME280;63567;49.956;20.130;2024-02-21T10:48:11;97365.56;;;11.72;71.55
75013;BME280;63567;49.956;20.130;2024-02-21T10:53:32;97362.25;;;11.85;71.94
75013;BME280;63567;49.956;20.130;2024-02-21T10:56:22;97351.44;;;11.95;72.21
75013;BME280;63567;49.956;20.130;2024-02-21T10:58:49;97353.91;;;12.03;71.76
75013;BME280;63567;49.956;20.130;2024-02-21T11:01:14;97349.53;;;12.10;71.40
75013;BME280;63567;49.956;20.130;2024-02-21T11:03:41;97359.13;;;12.18;71.00
75013;BME280;63567;49.956;20.130;2024-02-21T11:06:10;97350.44;;;12.24;70.63
75013;BME280;63567;49.956;20.130;2024-02-21T11:08:35;97339.19;;;12.37;70.20
75013;BME280;63567;49.956;20.130;2024-02-21T11:11:01;97340.69;;;12.53;70.88
75013;BME280;63567;49.956;20.130;2024-02-21T11:13:35;97342.06;;;12.77;71.43
75013;BME280;63567;49.956;20.130;2024-02-21T11:16:10;97335.09;;;13.04;71.67
75013;BME280;63567;49.956;20.130;2024-02-21T11:18:36;97324.59;;;13.24;71.62
75013;BME280;63567;49.956;20.130;2024-02-21T11:21:01;97328.19;;;13.51;71.52
75013;BME280;63567;49.956;20.130;2024-02-21T11:23:28;97329.06;;;13.79;71.12
75013;BME280;63567;49.956;20.130;2024-02-21T11:26:04;97319.72;;;13.96;69.63
75013;BME280;63567;49.956;20.130;2024-02-21T11:28:30;97325.63;;;14.11;69.76
75013;BME280;63567;49.956;20.130;2024-02-21T11:31:06;97321.56;;;14.22;68.81
75013;BME280;63567;49.956;20.130;2024-02-21T11:33:33;97323.59;;;14.27;68.07
75013;BME280;63567;49.956;20.130;2024-02-21T11:35:58;97327.88;;;14.28;67.29
75013;BME280;63567;49.956;20.130;2024-02-21T11:38:23;97322.59;;;14.21;66.05
75013;BME280;63567;49.956;20.130;2024-02-21T11:40:50;97323.59;;;14.07;64.67
75013;BME280;63567;49.956;20.130;2024-02-21T11:43:15;97316.66;;;13.86;64.43
75013;BME280;63567;49.956;20.130;2024-02-21T11:45:41;97312.16;;;13.66;64.36
75013;BME280;63567;49.956;20.130;2024-02-21T11:48:07;97305.81;;;13.54;65.34
75013;BME280;63567;49.956;20.130;2024-02-21T11:50:36;97304.75;;;13.42;65.67
75013;BME280;63567;49.956;20.130;2024-02-21T11:53:02;97308.53;;;13.26;66.05
75013;BME280;63567;49.956;20.130;2024-02-21T11:55:28;97307.09;;;13.17;66.18
75013;BME280;63567;49.956;20.130;2024-02-21T11:57:54;97309.09;;;13.08;66.27
75013;BME280;63567;49.956;20.130;2024-02-21T12:00:19;97300.09;;;12.95;65.99
75013;BME280;63567;49.956;20.130;2024-02-21T12:02:49;97297.41;;;12.89;66.86
75013;BME280;63567;49.956;20.130;2024-02-21T12:05:15;97296.97;;;12.85;67.50
75013;BME280;63567;49.956;20.130;2024-02-21T12:07:41;97291.09;;;12.90;68.27
75013;BME280;63567;49.956;20.130;2024-02-21T12:10:11;97281.16;;;12.99;69.14
75013;BME280;63567;49.956;20.130;2024-02-21T12:12:37;97281.44;;;13.17;70.01
75013;BME280;63567;49.956;20.130;2024-02-21T12:15:03;97289.28;;;13.39;69.95
75013;BME280;63567;49.956;20.130;2024-02-21T12:17:33;97290.75;;;13.54;69.24
75013;BME280;63567;49.956;20.130;2024-02-21T12:19:59;97287.72;;;13.64;67.84
75013;BME280;63567;49.956;20.130;2024-02-21T12:22:25;97287.50;;;13.72;67.29
75013;BME280;63567;49.956;20.130;2024-02-21T12:24:50;97289.75;;;13.75;66.59
75013;BME280;63567;49.956;20.130;2024-02-21T12:27:15;97292.41;;;13.75;65.64
75013;BME280;63567;49.956;20.130;2024-02-21T12:29:40;97286.28;;;13.68;65.52
75013;BME280;63567;49.956;20.130;2024-02-21T12:32:06;97286.25;;;13.62;65.54
75013;BME280;63567;49.956;20.130;2024-02-21T12:34:31;97279.31;;;13.47;64.79
75013;BME280;63567;49.956;20.130;2024-02-21T12:37:01;97269.91;;;13.31;64.46
75013;BME280;63567;49.956;20.130;2024-02-21T12:39:28;97282.25;;;13.11;64.20
75013;BME280;63567;49.956;20.130;2024-02-21T12:41:53;97275.22;;;12.90;64.04
75013;BME280;63567;49.956;20.130;2024-02-21T12:44:19;97269.03;;;12.69;64.26
75013;BME280;63567;49.956;20.130;2024-02-21T12:46:44;97284.22;;;12.54;65.22
75013;BME280;63567;49.956;20.130;2024-02-21T12:49:10;97275.94;;;12.36;65.43
75013;BME280;63567;49.956;20.130;2024-02-21T12:51:35;97275.88;;;12.22;65.76
75013;BME280;63567;49.956;20.130;2024-02-21T12:54:01;97265.38;;;12.07;66.17